Time;durP1;ratioP1;P1;durP2;ratioP2;P2;SDS_P1;SDS_P2;PMS_P1;PMS_P2;Temp;Humidity;BMP_temperature;BMP_pressure;BME280_temperature;BME280_humidity;BME280_pressure;Samples;Min_cycle;Max_cycle;Signal;HPM_P1;HPM_P2
2023/09/15 00:01:41;;;;;;;3.78;2.30;;;9.00;100.00;;;;;;4978852;28;20055;-70
2023/09/15 00:04:11;;;;;;;5.75;2.80;;;8.90;100.00;;;;;;4974880;28;20109;-70
2023/09/15 00:06:39;;;;;;;4.20;2.70;;;8.90;100.00;;;;;;4976937;28;20781;-70
2023/09/15 00:09:14;;;;;;;6.13;2.38;;;8.90;100.00;;;;;;4978199;28;20050;-70
2023/09/15 00:11:42;;;;;;;6.75;2.95;;;8.90;100.00;;;;;;4969539;28;20119;-70
2023/09/15 00:14:12;;;;;;;5.15;2.72;;;8.90;100.00;;;;;;4978253;28;20043;-70
2023/09/15 00:16:40;;;;;;;4.55;2.42;;;8.80;100.00;;;;;;4977582;28;20043;-70
2023/09/15 00:19:13;;;;;;;3.70;2.10;;;8.80;100.00;;;;;;4977803;28;20700;-70
2023/09/15 00:21:42;;;;;;;6.25;2.25;;;8.80;100.00;;;;;;4977250;28;20047;-70
2023/09/15 00:24:09;;;;;;;4.07;2.20;;;8.80;100.00;;;;;;4969701;28;20086;-70
2023/09/15 00:26:37;;;;;;;3.65;1.90;;;8.70;100.00;;;;;;4966004;28;20046;-70
2023/09/15 00:29:04;;;;;;;8.32;1.83;;;8.70;100.00;;;;;;4976062;28;20117;-70
2023/09/15 00:31:31;;;;;;;3.75;1.83;;;8.70;100.00;;;;;;4978275;28;20117;-70
2023/09/15 00:33:59;;;;;;;2.88;2.00;;;8.70;100.00;;;;;;4980193;28;20127;-70
2023/09/15 00:36:26;;;;;;;2.50;1.55;;;8.60;100.00;;;;;;4978678;28;20134;-70
2023/09/15 00:38:54;;;;;;;6.55;2.00;;;8.50;100.00;;;;;;4967994;28;20054;-70
2023/09/15 00:41:21;;;;;;;3.53;1.88;;;8.50;100.00;;;;;;4968517;28;20050;-70
2023/09/15 00:43:48;;;;;;;5.10;2.10;;;8.50;100.00;;;;;;4969165;28;20534;-70
2023/09/15 00:46:16;;;;;;;2.13;1.70;;;8.50;100.00;;;;;;4990703;28;20130;-76
2023/09/15 00:51:41;;;;;;;5.43;2.25;;;8.40;100.00;;;;;;4963137;28;20717;-70
2023/09/15 00:54:08;;;;;;;3.40;2.03;;;8.30;100.00;;;;;;4984032;28;20054;-70
2023/09/15 00:56:35;;;;;;;2.88;1.95;;;8.30;100.00;;;;;;4967069;28;20051;-70
2023/09/15 00:59:02;;;;;;;4.05;2.20;;;8.30;100.00;;;;;;4981956;28;20498;-70
2023/09/15 01:01:31;;;;;;;3.15;1.90;;;8.30;100.00;;;;;;4984437;28;20078;-75
2023/09/15 01:03:59;;;;;;;2.80;1.90;;;8.30;100.00;;;;;;4963907;28;20533;-76
2023/09/15 01:06:27;;;;;;;3.60;2.08;;;8.30;100.00;;;;;;4990865;28;20069;-75
2023/09/15 01:08:55;;;;;;;3.58;2.10;;;8.20;100.00;;;;;;4982170;28;20058;-76
2023/09/15 01:11:23;;;;;;;3.42;2.10;;;8.20;100.00;;;;;;4978188;28;20047;-76
2023/09/15 01:13:51;;;;;;;4.28;2.10;;;8.20;100.00;;;;;;4982059;28;20081;-76
2023/09/15 01:16:24;;;;;;;2.97;2.20;;;8.20;100.00;;;;;;4966181;28;20074;-70
2023/09/15 01:19:04;;;;;;;7.28;2.42;;;8.20;100.00;;;;;;4979053;28;20126;-70
2023/09/15 01:21:50;;;;;;;4.50;2.60;;;8.10;100.00;;;;;;4977700;28;20773;-70
2023/09/15 01:24:26;;;;;;;;;;;8.10;100.00;;;;;;4969807;28;20054;-70
2023/09/15 01:26:59;;;;;;;;;;;8.10;100.00;;;;;;4973906;28;19948;-70
2023/09/15 01:29:52;;;;;;;3.78;2.78;;;8.10;100.00;;;;;;4966740;28;19922;-70
2023/09/15 01:32:19;;;;;;;5.05;3.20;;;8.10;100.00;;;;;;4981666;28;20054;-70
2023/09/15 01:34:49;;;;;;;4.30;3.05;;;8.10;100.00;;;;;;4974874;28;20121;-70
2023/09/15 01:37:17;;;;;;;7.50;3.58;;;8.00;100.00;;;;;;4964173;28;20735;-70
2023/09/15 01:39:43;;;;;;;7.20;3.88;;;8.00;100.00;;;;;;4965149;28;20173;-70
2023/09/15 01:42:10;;;;;;;4.97;2.95;;;8.00;100.00;;;;;;4966288;28;20057;-70
2023/09/15 01:44:37;;;;;;;7.57;3.67;;;8.00;100.00;;;;;;4966094;28;20603;-70
2023/09/15 01:47:09;;;;;;;10.25;3.70;;;7.90;100.00;;;;;;4973559;28;20142;-70
2023/09/15 01:49:38;;;;;;;8.13;2.75;;;7.90;100.00;;;;;;4967734;28;20089;-70
2023/09/15 01:52:06;;;;;;;4.72;3.17;;;7.80;100.00;;;;;;4985748;28;20104;-70
2023/09/15 01:54:34;;;;;;;4.05;2.50;;;7.90;100.00;;;;;;4987492;28;20399;-70
2023/09/15 01:57:01;;;;;;;5.95;2.70;;;7.80;100.00;;;;;;4986698;28;20087;-70
2023/09/15 01:59:28;;;;;;;3.70;2.42;;;7.80;100.00;;;;;;4983556;28;20054;-70
2023/09/15 02:01:55;;;;;;;4.97;2.80;;;7.80;100.00;;;;;;4983019;28;20042;-70
2023/09/15 02:04:23;;;;;;;5.28;2.83;;;7.80;100.00;;;;;;4984321;28;20077;-70
2023/09/15 02:06:50;;;;;;;3.38;2.40;;;7.80;100.00;;;;;;4984491;28;20071;-70
2023/09/15 02:09:17;;;;;;;3.67;2.60;;;7.80;100.00;;;;;;4986041;28;20050;-70
2023/09/15 02:11:45;;;;;;;5.00;2.75;;;7.80;100.00;;;;;;4984065;28;20062;-70
2023/09/15 02:14:12;;;;;;;3.97;2.58;;;7.80;100.00;;;;;;4976096;28;20045;-70
2023/09/15 02:16:38;;;;;;;5.75;2.67;;;7.70;100.00;;;;;;4982835;28;20050;-70
2023/09/15 02:19:06;;;;;;;6.30;3.10;;;7.70;100.00;;;;;;4967457;28;20073;-70
2023/09/15 02:21:33;;;;;;;3.72;2.50;;;7.80;100.00;;;;;;4986612;28;20102;-75
2023/09/15 02:24:02;;;;;;;8.38;2.67;;;7.70;100.00;;;;;;4984261;28;20108;-75
2023/09/15 02:26:29;;;;;;;4.40;2.72;;;7.70;100.00;;;;;;4990413;28;20529;-75
2023/09/15 02:28:56;;;;;;;5.80;2.47;;;7.70;100.00;;;;;;4989169;28;20490;-76
2023/09/15 02:31:22;;;;;;;4.03;2.30;;;7.70;100.00;;;;;;4988668;28;20136;-75
2023/09/15 02:33:50;;;;;;;5.60;2.45;;;7.70;100.00;;;;;;4986412;28;20155;-75
2023/09/15 02:36:18;;;;;;;2.47;2.03;;;7.60;100.00;;;;;;4987586;28;20104;-75
2023/09/15 02:38:45;;;;;;;3.30;2.33;;;7.70;100.00;;;;;;4986874;28;20462;-70
2023/09/15 02:41:12;;;;;;;2.75;2.33;;;7.60;100.00;;;;;;4984376;28;20120;-70
2023/09/15 02:43:39;;;;;;;3.63;2.40;;;7.70;100.00;;;;;;4984815;28;20054;-70
2023/09/15 02:46:06;;;;;;;4.43;2.67;;;7.70;100.00;;;;;;4984592;28;20042;-70
2023/09/15 02:48:33;;;;;;;4.32;2.72;;;7.60;100.00;;;;;;4982556;28;20077;-70
2023/09/15 02:51:01;;;;;;;7.00;2.80;;;7.60;100.00;;;;;;4982736;28;20143;-70
2023/09/15 02:53:29;;;;;;;4.50;2.55;;;7.60;100.00;;;;;;4981980;28;20051;-70
2023/09/15 02:55:56;;;;;;;5.78;2.60;;;7.60;100.00;;;;;;4974241;28;20074;-76
2023/09/15 03:02:12;;;;;;;4.20;2.25;;;7.50;100.00;;;;;;4992034;28;20057;-70
2023/09/15 03:04:39;;;;;;;3.42;2.22;;;7.50;100.00;;;;;;5003249;28;20068;-70
2023/09/15 03:07:06;;;;;;;6.28;2.13;;;7.50;100.00;;;;;;5003495;28;20104;-71
2023/09/15 03:09:33;;;;;;;3.47;2.33;;;7.50;100.00;;;;;;4996853;28;20050;-71
2023/09/15 03:12:00;;;;;;;2.67;1.98;;;7.40;100.00;;;;;;5008481;28;20057;-70
2023/09/15 03:14:27;;;;;;;2.45;1.80;;;7.40;100.00;;;;;;5011974;28;20119;-70
2023/09/15 03:16:54;;;;;;;11.70;1.90;;;7.40;100.00;;;;;;4992356;28;20185;-70
2023/09/15 03:19:22;;;;;;;3.42;2.10;;;7.40;100.00;;;;;;5003282;28;20042;-70
2023/09/15 03:21:49;;;;;;;2.97;1.73;;;7.30;100.00;;;;;;4987150;28;20056;-70
2023/09/15 03:24:17;;;;;;;3.50;1.92;;;7.30;100.00;;;;;;4991201;28;20053;-70
2023/09/15 03:26:45;;;;;;;6.97;1.70;;;7.30;100.00;;;;;;5003607;28;20143;-70
2023/09/15 03:29:11;;;;;;;4.18;2.13;;;7.30;100.00;;;;;;5014427;28;20067;-71
2023/09/15 03:31:38;;;;;;;2.70;1.75;;;7.20;100.00;;;;;;5005241;28;20553;-71
2023/09/15 03:34:05;;;;;;;2.67;2.05;;;7.20;100.00;;;;;;5003392;28;20046;-71
2023/09/15 03:36:32;;;;;;;3.15;2.25;;;7.20;100.00;;;;;;5008036;28;20057;-70
2023/09/15 03:38:59;;;;;;;2.67;1.80;;;7.10;100.00;;;;;;5001500;28;20046;-70
2023/09/15 03:41:27;;;;;;;4.95;2.05;;;7.20;100.00;;;;;;4986900;28;20049;-71
2023/09/15 03:43:55;;;;;;;4.30;2.30;;;7.20;100.00;;;;;;5001267;28;20064;-70
2023/09/15 03:46:23;;;;;;;3.40;2.20;;;7.20;100.00;;;;;;5007411;28;20068;-70
2023/09/15 03:48:50;;;;;;;4.75;2.15;;;7.10;100.00;;;;;;5001060;28;20057;-71
2023/09/15 03:51:17;;;;;;;4.03;2.30;;;7.10;100.00;;;;;;5007432;28;20064;-70
2023/09/15 03:53:44;;;;;;;8.05;2.15;;;7.10;100.00;;;;;;5006474;28;20046;-71
2023/09/15 03:56:11;;;;;;;4.07;2.55;;;7.00;100.00;;;;;;5000820;28;20136;-70
2023/09/15 03:58:38;;;;;;;5.85;2.35;;;7.10;100.00;;;;;;5001053;28;20050;-70
2023/09/15 04:01:08;;;;;;;5.63;2.65;;;7.00;100.00;;;;;;4984739;28;20120;-70
2023/09/15 04:03:36;;;;;;;4.55;2.85;;;7.00;100.00;;;;;;4988974;28;20455;-71
2023/09/15 04:06:04;;;;;;;7.60;2.83;;;7.00;100.00;;;;;;5002910;28;20046;-71
2023/09/15 04:08:31;;;;;;;9.52;2.80;;;7.00;100.00;;;;;;5001444;28;20062;-71
2023/09/15 04:10:58;;;;;;;13.77;2.13;;;7.00;100.00;;;;;;5006877;28;20057;-71
2023/09/15 04:13:25;;;;;;;5.10;2.63;;;7.00;100.00;;;;;;4992493;28;20054;-71
2023/09/15 04:15:52;;;;;;;6.60;2.42;;;7.00;100.00;;;;;;5004273;28;20157;-72
2023/09/15 04:18:19;;;;;;;6.35;2.58;;;7.00;100.00;;;;;;5004413;28;20081;-70
2023/09/15 04:20:49;;;;;;;4.28;2.78;;;6.90;100.00;;;;;;5005835;28;20107;-70
2023/09/15 04:23:17;;;;;;;7.40;2.75;;;7.00;100.00;;;;;;5005568;28;20721;-71
2023/09/15 04:25:44;;;;;;;6.75;3.00;;;7.00;100.00;;;;;;5004976;28;20053;-70
2023/09/15 04:28:11;;;;;;;7.82;3.35;;;6.90;100.00;;;;;;5006511;28;20050;-70
2023/09/15 04:30:38;;;;;;;4.18;2.67;;;6.90;100.00;;;;;;5005695;28;20093;-70
2023/09/15 04:33:05;;;;;;;5.00;2.92;;;6.90;100.00;;;;;;5005370;28;20516;-70
2023/09/15 04:35:32;;;;;;;7.80;3.17;;;7.00;100.00;;;;;;5010188;28;20180;-70
2023/09/15 04:37:59;;;;;;;7.32;4.60;;;7.00;100.00;;;;;;4988251;28;20050;-70
2023/09/15 04:40:27;;;;;;;10.68;4.25;;;7.00;100.00;;;;;;4987695;28;20054;-70
2023/09/15 04:42:54;;;;;;;6.80;3.80;;;7.00;100.00;;;;;;5005163;28;20152;-70
2023/09/15 04:45:21;;;;;;;14.70;3.65;;;7.00;100.00;;;;;;4988350;28;20053;-71
2023/09/15 04:47:48;;;;;;;8.00;4.00;;;7.00;100.00;;;;;;5005936;28;20089;-71
2023/09/15 04:53:24;;;;;;;5.63;3.75;;;7.10;100.00;;;;;;5004676;28;20050;-80
2023/09/15 04:55:51;;;;;;;9.45;3.67;;;7.10;100.00;;;;;;5015575;28;20650;-76
2023/09/15 04:58:18;;;;;;;6.97;3.88;;;7.00;100.00;;;;;;5018997;28;20046;-80
2023/09/15 05:00:45;;;;;;;8.48;4.07;;;7.00;100.00;;;;;;5016952;28;20065;-79
2023/09/15 05:03:12;;;;;;;5.93;3.83;;;7.00;100.00;;;;;;5009026;28;20662;-75
2023/09/15 05:05:39;;;;;;;6.65;3.83;;;7.00;100.00;;;;;;5009526;28;20057;-76
2023/09/15 05:08:06;;;;;;;8.07;4.22;;;7.10;100.00;;;;;;5012997;28;20054;-76
2023/09/15 05:10:33;;;;;;;9.18;4.13;;;7.20;100.00;;;;;;5010886;28;20108;-78
2023/09/15 05:13:05;;;;;;;8.50;4.60;;;7.20;100.00;;;;;;5010949;28;20065;-79
2023/09/15 05:15:34;;;;;;;7.47;4.38;;;7.20;100.00;;;;;;5011956;28;20137;-78
2023/09/15 05:18:01;;;;;;;7.28;4.07;;;7.30;100.00;;;;;;5001366;28;20752;-90
2023/09/15 05:20:28;;;;;;;9.60;4.72;;;7.30;100.00;;;;;;5010772;28;20054;-78
2023/09/15 05:22:54;;;;;;;13.63;4.78;;;7.40;100.00;;;;;;5027631;28;20081;-77
2023/09/15 05:25:21;;;;;;;11.20;4.50;;;7.40;100.00;;;;;;5015058;28;20832;-77
2023/09/15 05:27:48;;;;;;;9.82;4.68;;;7.40;100.00;;;;;;5018205;28;20470;-77
2023/09/15 05:30:17;;;;;;;8.38;4.57;;;7.50;100.00;;;;;;5012140;28;20557;-77
2023/09/15 05:32:44;;;;;;;8.10;4.60;;;7.50;100.00;;;;;;5018297;28;20061;-77
2023/09/15 05:35:11;;;;;;;15.63;5.40;;;7.50;100.00;;;;;;5013341;28;20053;-77
2023/09/15 05:37:38;;;;;;;11.10;5.78;;;7.60;100.00;;;;;;5011133;28;20441;-77
2023/09/15 05:40:06;;;;;;;10.70;5.50;;;7.60;100.00;;;;;;5011300;28;20046;-77
2023/09/15 05:42:33;;;;;;;16.63;5.45;;;7.70;100.00;;;;;;5006486;28;20050;-77
2023/09/15 05:45:00;;;;;;;11.90;5.10;;;7.80;100.00;;;;;;5017666;28;20072;-77
2023/09/15 05:47:27;;;;;;;18.38;5.20;;;7.80;100.00;;;;;;5012340;28;20077;-77
2023/09/15 05:49:54;;;;;;;8.57;4.88;;;7.90;100.00;;;;;;5010047;28;20046;-77
2023/09/15 05:52:21;;;;;;;13.27;4.93;;;7.90;100.00;;;;;;5010921;28;20459;-78
2023/09/15 05:54:48;;;;;;;12.38;5.25;;;8.00;100.00;;;;;;5015923;28;20065;-77
2023/09/15 05:57:15;;;;;;;11.88;5.40;;;8.10;100.00;;;;;;5017505;28;20052;-77
2023/09/15 05:59:42;;;;;;;11.15;4.80;;;8.10;100.00;;;;;;5014631;28;20058;-77
2023/09/15 06:02:09;;;;;;;9.95;5.50;;;8.20;100.00;;;;;;5009549;28;20073;-77
2023/09/15 06:04:36;;;;;;;12.63;5.85;;;8.30;100.00;;;;;;5015192;28;20057;-77
2023/09/15 06:07:03;;;;;;;10.55;5.78;;;8.40;100.00;;;;;;5012540;28;20050;-77
2023/09/15 06:09:30;;;;;;;14.05;6.07;;;8.50;100.00;;;;;;5010882;28;20052;-77
2023/09/15 06:11:57;;;;;;;12.95;5.82;;;8.60;100.00;;;;;;5009825;28;20056;-76
2023/09/15 06:14:24;;;;;;;17.83;6.53;;;8.70;100.00;;;;;;5014312;28;20045;-76
2023/09/15 06:16:50;;;;;;;13.75;7.10;;;8.80;100.00;;;;;;5010668;28;20482;-79
2023/09/15 06:19:17;;;;;;;12.48;6.93;;;9.00;100.00;;;;;;5009726;28;20737;-82
2023/09/15 06:21:44;;;;;;;16.35;8.35;;;9.20;100.00;;;;;;5012958;28;20053;-80
2023/09/15 06:24:11;;;;;;;21.10;8.70;;;9.50;100.00;;;;;;5008562;28;20057;-75
2023/09/15 06:26:38;;;;;;;15.25;8.38;;;9.80;100.00;;;;;;5015634;28;20137;-74
2023/09/15 06:29:05;;;;;;;19.77;10.05;;;10.00;100.00;;;;;;5016020;28;20107;-73
2023/09/15 06:31:33;;;;;;;17.73;9.45;;;10.30;100.00;;;;;;5003830;28;20163;-72
2023/09/15 06:34:00;;;;;;;21.27;9.07;;;10.50;100.00;;;;;;5002716;28;20137;-73
2023/09/15 06:36:27;;;;;;;16.02;8.93;;;10.80;100.00;;;;;;5003514;28;20641;-72
2023/09/15 06:38:54;;;;;;;15.98;7.90;;;11.10;100.00;;;;;;5005565;28;20045;-72
2023/09/15 06:41:21;;;;;;;14.13;7.20;;;11.30;100.00;;;;;;5002981;28;20466;-73
2023/09/15 06:43:48;;;;;;;15.48;9.23;;;11.70;100.00;;;;;;5002714;28;20054;-73
2023/09/15 06:46:21;;;;;;;18.10;7.75;;;12.00;100.00;;;;;;5009915;28;20045;-73
2023/09/15 06:48:49;;;;;;;18.27;7.88;;;12.30;100.00;;;;;;5004366;28;20058;-73
2023/09/15 06:51:16;;;;;;;14.65;7.05;;;12.60;100.00;;;;;;5005161;28;20050;-73
2023/09/15 06:53:42;;;;;;;11.27;6.15;;;12.90;100.00;;;;;;5019950;28;20053;-73
2023/09/15 06:56:09;;;;;;;17.00;6.90;;;13.20;100.00;;;;;;5024513;28;20838;-73
2023/09/15 06:58:36;;;;;;;22.70;7.13;;;13.50;100.00;;;;;;5023158;28;20141;-73
2023/09/15 07:01:04;;;;;;;11.65;5.13;;;14.00;99.20;;;;;;5020960;28;20065;-74
2023/09/15 07:03:31;;;;;;;9.13;5.22;;;14.40;99.10;;;;;;5021142;28;20051;-74
2023/09/15 07:05:58;;;;;;;12.38;4.85;;;14.80;97.20;;;;;;5015974;28;20062;-75
2023/09/15 07:08:25;;;;;;;10.93;4.05;;;15.10;96.00;;;;;;4998762;28;20080;-76
2023/09/15 07:10:52;;;;;;;5.35;3.72;;;15.50;94.10;;;;;;5019417;28;20182;-76
2023/09/15 07:13:19;;;;;;;5.75;3.42;;;15.90;92.90;;;;;;5019010;28;20097;-76
2023/09/15 07:15:47;;;;;;;6.68;3.60;;;16.20;91.60;;;;;;5021975;28;20077;-77
2023/09/15 07:18:14;;;;;;;5.70;3.40;;;16.60;90.40;;;;;;5026448;28;20099;-82
2023/09/15 07:20:41;;;;;;;8.18;3.05;;;16.80;89.00;;;;;;5004920;28;20053;-76
2023/09/15 07:23:09;;;;;;;5.75;2.78;;;17.00;88.50;;;;;;5011562;28;20052;-76
2023/09/15 07:25:36;;;;;;;8.52;3.35;;;17.30;87.10;;;;;;5022401;28;20138;-76
2023/09/15 07:28:04;;;;;;;8.18;2.70;;;17.60;85.70;;;;;;5023268;28;20443;-76
2023/09/15 07:30:31;;;;;;;7.35;2.97;;;17.90;85.30;;;;;;5021876;28;20053;-77
2023/09/15 07:32:58;;;;;;;7.70;3.45;;;18.10;83.30;;;;;;5015176;28;20174;-76
2023/09/15 07:35:25;;;;;;;5.32;3.45;;;18.30;82.90;;;;;;5005487;28;20045;-77
2023/09/15 07:37:51;;;;;;;4.90;2.78;;;18.40;82.10;;;;;;5022174;28;20054;-76
2023/09/15 07:40:22;;;;;;;6.70;3.08;;;18.70;81.10;;;;;;5024468;28;20084;-76
2023/09/15 07:42:51;;;;;;;8.40;3.20;;;19.10;80.10;;;;;;5021729;28;20057;-77
2023/09/15 07:45:18;;;;;;;3.75;2.55;;;19.30;79.20;;;;;;5023201;28;20139;-77
2023/09/15 07:47:45;;;;;;;5.30;2.83;;;19.80;77.00;;;;;;5024548;28;20502;-76
2023/09/15 07:50:13;;;;;;;6.40;2.65;;;20.20;75.40;;;;;;5007977;28;20128;-77
2023/09/15 07:52:40;;;;;;;7.97;2.50;;;20.70;73.70;;;;;;5025877;28;20107;-77
2023/09/15 07:55:07;;;;;;;5.82;2.88;;;21.10;73.40;;;;;;5026166;28;20060;-76
2023/09/15 07:57:37;;;;;;;4.57;2.47;;;21.50;72.60;;;;;;5010391;28;20052;-78
2023/09/15 08:00:06;;;;;;;7.25;2.50;;;21.70;72.30;;;;;;5030779;28;20064;-76
2023/09/15 08:02:36;;;;;;;4.97;2.30;;;22.10;71.10;;;;;;5026480;28;20068;-76
2023/09/15 08:05:04;;;;;;;7.28;2.00;;;22.40;70.20;;;;;;5014413;28;20072;-76
2023/09/15 08:07:31;;;;;;;4.55;2.58;;;22.40;67.90;;;;;;5008643;28;20442;-76
2023/09/15 08:10:00;;;;;;;5.93;2.83;;;22.40;70.00;;;;;;5027542;28;20095;-77
2023/09/15 08:12:28;;;;;;;15.57;2.70;;;22.30;70.60;;;;;;5023997;28;20141;-78
2023/09/15 08:14:55;;;;;;;4.22;2.40;;;22.30;70.20;;;;;;5029004;28;20045;-76
2023/09/15 08:20:26;;;;;;;4.20;2.55;;;22.00;69.50;;;;;;4959992;28;20050;-79
2023/09/15 08:22:53;;;;;;;9.98;2.90;;;22.10;71.40;;;;;;4981611;28;20065;-79
2023/09/15 08:25:20;;;;;;;7.95;3.05;;;22.10;70.90;;;;;;4959054;28;20051;-79
2023/09/15 08:27:47;;;;;;;4.85;3.00;;;22.10;69.60;;;;;;4962091;28;20083;-79
2023/09/15 08:30:15;;;;;;;6.65;2.58;;;21.80;70.60;;;;;;4965666;28;20054;-78
2023/09/15 08:32:43;;;;;;;6.70;2.83;;;21.60;72.00;;;;;;4980819;28;20537;-78
2023/09/15 08:35:10;;;;;;;6.70;2.90;;;21.90;71.20;;;;;;4975999;28;20435;-79
2023/09/15 08:37:37;;;;;;;5.75;2.60;;;22.10;69.70;;;;;;4965222;28;20062;-78
2023/09/15 08:40:05;;;;;;;6.78;2.28;;;22.20;68.50;;;;;;4967522;28;20886;-78
2023/09/15 08:42:32;;;;;;;9.00;2.33;;;22.40;69.00;;;;;;4966181;28;20700;-78
2023/09/15 08:45:04;;;;;;;4.30;2.58;;;22.40;70.10;;;;;;4966882;28;20732;-78
2023/09/15 08:47:39;;;;;;;5.85;2.30;;;22.40;67.10;;;;;;4963184;28;20145;-75
2023/09/15 08:50:07;;;;;;;6.47;2.88;;;22.50;68.40;;;;;;4989599;23;20042;-74
2023/09/15 08:52:36;;;;;;;3.95;2.17;;;22.80;68.10;;;;;;4982227;28;20054;-73
2023/09/15 08:55:03;;;;;;;5.90;2.60;;;23.20;67.60;;;;;;4992254;28;20529;-74
2023/09/15 08:57:32;;;;;;;3.88;2.38;;;23.20;66.50;;;;;;4998798;28;20065;-74
2023/09/15 08:59:59;;;;;;;5.47;2.22;;;23.30;65.90;;;;;;4983733;28;20046;-74
2023/09/15 09:02:26;;;;;;;6.25;1.95;;;23.70;65.40;;;;;;4988239;28;20074;-74
2023/09/15 09:04:53;;;;;;;3.38;1.90;;;24.00;62.60;;;;;;4998420;28;20061;-74
2023/09/15 09:07:24;;;;;;;10.65;2.55;;;24.30;63.90;;;;;;4984049;28;20196;-74
2023/09/15 09:09:53;;;;;;;4.38;2.45;;;24.40;63.90;;;;;;4981400;28;20692;-74
2023/09/15 09:12:21;;;;;;;5.18;2.63;;;24.60;63.40;;;;;;4984515;28;20089;-74
2023/09/15 09:14:53;;;;;;;6.13;2.25;;;25.10;62.30;;;;;;4982857;28;20486;-74
2023/09/15 09:17:22;;;;;;;13.25;2.50;;;25.50;61.10;;;;;;4983916;28;20046;-74
2023/09/15 09:19:49;;;;;;;7.78;2.47;;;25.50;61.20;;;;;;4983995;28;20050;-74
2023/09/15 09:22:19;;;;;;;3.03;1.92;;;25.80;57.80;;;;;;4994950;28;20046;-74
2023/09/15 09:24:55;;;;;;;4.65;1.88;;;26.00;58.60;;;;;;4984188;28;20614;-74
2023/09/15 09:27:34;;;;;;;3.25;1.88;;;25.60;56.20;;;;;;4983800;28;20046;-73
2023/09/15 09:30:01;;;;;;;9.77;2.03;;;25.70;60.20;;;;;;4982221;28;20057;-74
2023/09/15 09:32:28;;;;;;;4.47;2.00;;;26.60;58.60;;;;;;4984354;28;20225;-74
2023/09/15 09:34:55;;;;;;;6.10;2.15;;;27.50;58.00;;;;;;4988347;28;20054;-74
2023/09/15 09:37:26;;;;;;;4.53;2.25;;;28.10;53.60;;;;;;5000703;28;20125;-74
2023/09/15 09:39:53;;;;;;;5.88;1.88;;;28.80;52.90;;;;;;4986308;28;20065;-74
2023/09/15 09:42:29;;;;;;;3.28;1.80;;;29.00;51.90;;;;;;4985253;28;20042;-74
2023/09/15 09:44:57;;;;;;;4.90;2.50;;;29.60;51.40;;;;;;4984416;28;20050;-73
2023/09/15 09:47:25;;;;;;;7.78;2.22;;;29.80;48.60;;;;;;4983023;28;20521;-74
2023/09/15 09:49:53;;;;;;;3.08;2.13;;;30.20;47.30;;;;;;4995471;28;20049;-74
2023/09/15 09:52:21;;;;;;;4.68;2.22;;;30.50;49.20;;;;;;5011115;28;20045;-74
2023/09/15 10:01:24;;;;;;;6.60;2.10;;;30.30;48.70;;;;;;4989692;28;20073;-74
2023/09/15 10:04:21;;;;;;;3.15;1.63;;;30.60;47.70;;;;;;5011709;28;20065;-74
2023/09/15 10:06:56;;;;;;;4.05;2.00;;;31.20;49.00;;;;;;5003920;28;20139;-75
2023/09/15 10:09:46;;;;;;;25.33;8.00;;;31.00;44.00;;;;;;5006289;28;20068;-74
2023/09/15 10:12:23;;;;;;;6.45;3.85;;;29.80;45.70;;;;;;4988839;28;20065;-74
2023/09/15 10:14:52;;;;;;;3.92;2.05;;;28.80;47.70;;;;;;5005514;28;20053;-74
2023/09/15 10:17:20;;;;;;;3.53;1.83;;;28.30;51.90;;;;;;5009591;28;20049;-74
2023/09/15 10:19:48;;;;;;;7.38;1.90;;;28.50;49.60;;;;;;5005306;28;20077;-74
2023/09/15 10:22:16;;;;;;;12.73;3.70;;;28.30;50.90;;;;;;4989703;28;20076;-74
2023/09/15 10:24:56;;;;;;;32.00;3.65;;;28.80;51.50;;;;;;4987218;28;20129;-79
2023/09/15 10:27:23;;;;;;;6.40;2.35;;;29.50;50.90;;;;;;5010431;28;20085;-75
2023/09/15 10:29:52;;;;;;;22.40;4.32;;;29.70;50.50;;;;;;5008278;28;20080;-77
2023/09/15 10:32:20;;;;;;;3.15;1.90;;;29.60;50.30;;;;;;5002273;28;20763;-76
2023/09/15 10:34:47;;;;;;;5.25;3.03;;;29.60;49.80;;;;;;5009801;28;20500;-77
2023/09/15 10:37:15;;;;;;;4.43;1.73;;;29.40;49.10;;;;;;5010298;28;20499;-76
2023/09/15 10:39:42;;;;;;;2.83;1.90;;;28.60;49.70;;;;;;5004276;28;21719;-77
2023/09/15 10:42:11;;;;;;;2.67;1.60;;;28.70;49.30;;;;;;5002239;28;20045;-76
2023/09/15 10:44:38;;;;;;;3.20;1.90;;;28.90;50.00;;;;;;4993204;28;20101;-76
2023/09/15 10:47:17;;;;;;;2.15;1.60;;;28.50;49.50;;;;;;5012555;28;20100;-76
2023/09/15 10:49:54;;;;;;;6.00;1.80;;;28.70;48.20;;;;;;5002378;28;20520;-76
2023/09/15 10:52:37;;;;;;;3.75;1.85;;;29.00;51.10;;;;;;5001255;28;20518;-76
2023/09/15 10:55:05;;;;;;;4.05;2.10;;;29.30;49.00;;;;;;5001229;28;20139;-76
2023/09/15 10:57:36;;;;;;;5.22;1.88;;;29.50;46.90;;;;;;5007330;28;20082;-77
2023/09/15 11:00:08;;;;;;;10.38;2.33;;;29.50;48.30;;;;;;5005948;28;20120;-76
2023/09/15 11:02:38;;;;;;;3.05;1.65;;;29.50;46.30;;;;;;4990159;28;20554;-76
2023/09/15 11:05:05;;;;;;;5.38;1.98;;;29.30;46.90;;;;;;4999032;28;20044;-76
2023/09/15 11:07:36;;;;;;;2.75;1.58;;;29.20;46.80;;;;;;5003446;28;20050;-76
2023/09/15 11:10:06;;;;;;;5.35;1.92;;;28.90;45.90;;;;;;4999498;28;20041;-76
2023/09/15 11:12:33;;;;;;;3.08;1.50;;;28.80;47.80;;;;;;4989106;28;20061;-75
2023/09/15 11:15:01;;;;;;;2.13;1.40;;;29.50;47.30;;;;;;5001285;28;20576;-76
2023/09/15 11:17:29;;;;;;;2.58;1.88;;;29.40;48.40;;;;;;4985485;28;20049;-76
2023/09/15 11:19:57;;;;;;;5.00;2.00;;;29.50;46.10;;;;;;5003746;28;20050;-76
2023/09/15 11:22:24;;;;;;;3.40;1.75;;;29.50;47.10;;;;;;4986194;28;20190;-76
2023/09/15 11:24:52;;;;;;;4.68;1.70;;;30.40;46.00;;;;;;4986379;28;20061;-77
2023/09/15 11:27:33;;;;;;;4.25;1.80;;;31.20;43.60;;;;;;5006185;28;20058;-76
2023/09/15 11:30:04;;;;;;;4.13;1.40;;;31.10;44.60;;;;;;4994329;28;20056;-77
2023/09/15 11:32:35;;;;;;;15.63;7.88;;;31.80;41.20;;;;;;4988166;28;20528;-76
2023/09/15 11:35:04;;;;;;;3.55;1.90;;;32.10;42.10;;;;;;4997492;28;20798;-76
2023/09/15 11:37:33;;;;;;;5.85;1.83;;;32.10;43.10;;;;;;5017832;28;20061;-77
2023/09/15 11:40:00;;;;;;;3.88;1.30;;;32.20;42.00;;;;;;5002854;28;20559;-76
2023/09/15 11:42:26;;;;;;;3.38;1.65;;;32.90;41.10;;;;;;5004592;28;20128;-76
2023/09/15 11:44:55;;;;;;;4.35;1.98;;;33.40;41.70;;;;;;5004878;28;20050;-76
2023/09/15 11:47:22;;;;;;;4.63;1.85;;;33.90;40.60;;;;;;5011213;28;20783;-76
2023/09/15 11:49:49;;;;;;;8.70;1.90;;;34.40;39.40;;;;;;4994926;28;20565;-76
2023/09/15 11:52:16;;;;;;;4.60;1.63;;;34.80;38.30;;;;;;5005165;28;20125;-77
2023/09/15 11:54:44;;;;;;;5.93;1.73;;;34.20;38.50;;;;;;5005043;28;20053;-77
2023/09/15 11:57:11;;;;;;;4.07;1.60;;;34.50;38.90;;;;;;5008835;28;20045;-76
2023/09/15 11:59:38;;;;;;;4.43;2.05;;;34.60;39.90;;;;;;5008985;28;20053;-77
2023/09/15 12:02:05;;;;;;;3.15;1.83;;;35.10;38.90;;;;;;4996329;28;20054;-76
2023/09/15 12:04:32;;;;;;;4.15;2.03;;;35.80;39.40;;;;;;5002321;28;20053;-76
2023/09/15 12:07:00;;;;;;;4.43;2.08;;;35.80;38.90;;;;;;5011546;28;20085;-76
2023/09/15 12:09:27;;;;;;;3.40;2.00;;;35.90;39.60;;;;;;5003507;28;20232;-76
2023/09/15 12:11:54;;;;;;;5.40;2.20;;;36.00;38.50;;;;;;5004546;28;20053;-76
2023/09/15 12:14:23;;;;;;;3.50;2.00;;;35.60;39.10;;;;;;4983644;28;20073;-76
2023/09/15 12:16:51;;;;;;;3.13;1.70;;;35.70;39.90;;;;;;4988655;28;20178;-76
2023/09/15 12:19:17;;;;;;;2.80;1.70;;;36.00;38.80;;;;;;4990965;28;20046;-76
2023/09/15 12:21:55;;;;;;;2.25;1.75;;;36.00;39.30;;;;;;4992339;28;20056;-76
2023/09/15 12:24:23;;;;;;;3.00;2.00;;;36.00;37.30;;;;;;5010216;28;20593;-76
2023/09/15 12:26:51;;;;;;;4.60;1.77;;;35.60;39.40;;;;;;5009869;28;20474;-76
2023/09/15 12:29:18;;;;;;;3.47;1.92;;;36.30;38.70;;;;;;5003529;28;20093;-76
2023/09/15 12:31:46;;;;;;;3.97;2.05;;;35.60;38.70;;;;;;5010770;28;20049;-76
2023/09/15 12:34:20;;;;;;;3.85;1.90;;;36.10;38.30;;;;;;5018266;28;20049;-76
2023/09/15 12:36:51;;;;;;;5.07;2.00;;;36.50;39.00;;;;;;5020321;28;20697;-77
2023/09/15 12:39:18;;;;;;;4.95;2.47;;;35.50;39.10;;;;;;5014094;28;20587;-76
2023/09/15 12:41:45;;;;;;;3.15;1.88;;;36.10;38.50;;;;;;5012384;28;20045;-76
2023/09/15 12:44:24;;;;;;;3.25;2.00;;;36.20;39.50;;;;;;5006025;28;20053;-76
2023/09/15 12:46:52;;;;;;;5.50;2.30;;;36.90;38.20;;;;;;5016268;28;20112;-77
2023/09/15 12:49:20;;;;;;;2.83;1.73;;;37.20;37.50;;;;;;5010402;28;20049;-77
2023/09/15 12:51:47;;;;;;;6.43;2.90;;;37.70;36.30;;;;;;5002128;28;20061;-78
2023/09/15 12:54:15;;;;;;;3.15;1.98;;;37.50;37.60;;;;;;5017985;28;20049;-77
2023/09/15 12:56:42;;;;;;;3.30;2.08;;;38.10;37.00;;;;;;5018648;28;20778;-77
2023/09/15 12:59:09;;;;;;;3.97;2.05;;;38.40;36.50;;;;;;5010179;28;20086;-77
2023/09/15 13:01:36;;;;;;;3.33;2.55;;;37.90;34.80;;;;;;4991769;28;20054;-76
2023/09/15 13:04:03;;;;;;;3.20;1.77;;;37.30;37.20;;;;;;5012084;28;20088;-77
2023/09/15 13:06:30;;;;;;;4.38;1.73;;;38.00;36.40;;;;;;5007933;28;20050;-77
2023/09/15 13:08:57;;;;;;;2.95;1.95;;;37.50;36.70;;;;;;5023721;28;20046;-77
2023/09/15 13:11:24;;;;;;;4.40;2.35;;;37.30;36.80;;;;;;5015147;28;21427;-76